Time;durP1;ratioP1;P1;durP2;ratioP2;P2;SDS_P1;SDS_P2;PMS_P1;PMS_P2;Temp;Humidity;BMP_temperature;BMP_pressure;BME280_temperature;BME280_humidity;BME280_pressure;Samples;Min_cycle;Max_cycle;Signal;HPM_P1;HPM_P2
2023/05/04 00:02:09;;;;;;;4.22;2.95;;;6.80;99.90;;;;;;5040220;28;20029;-73
2023/05/04 00:04:35;;;;;;;4.07;2.60;;;6.80;99.90;;;;;;5039831;28;20067;-73
2023/05/04 00:07:01;;;;;;;4.82;2.97;;;6.80;99.90;;;;;;5043082;28;20389;-73
2023/05/04 00:09:26;;;;;;;4.22;2.78;;;6.80;99.90;;;;;;5053835;28;20041;-73
2023/05/04 00:11:52;;;;;;;4.45;2.80;;;6.70;99.90;;;;;;5053026;28;20443;-73
2023/05/04 00:14:18;;;;;;;4.40;2.90;;;6.70;99.90;;;;;;5043348;28;20385;-73
2023/05/04 00:16:43;;;;;;;3.83;2.75;;;6.60;99.90;;;;;;5045380;28;20423;-73
2023/05/04 00:19:09;;;;;;;5.07;2.88;;;6.60;99.90;;;;;;5054908;28;20033;-73
2023/05/04 00:21:35;;;;;;;4.00;2.90;;;6.60;99.90;;;;;;5041676;28;20132;-73
2023/05/04 00:24:01;;;;;;;3.78;2.42;;;6.50;99.90;;;;;;5042985;28;20031;-73
2023/05/04 00:26:27;;;;;;;4.28;2.70;;;6.50;99.90;;;;;;5035042;28;20038;-73
2023/05/04 00:28:52;;;;;;;4.47;2.90;;;6.50;99.90;;;;;;5034364;28;20437;-73
2023/05/04 00:31:18;;;;;;;4.90;2.83;;;6.50;99.90;;;;;;5035417;28;20034;-73
2023/05/04 00:33:44;;;;;;;3.85;2.90;;;6.50;99.90;;;;;;5036115;28;20032;-73
2023/05/04 00:36:12;;;;;;;6.13;3.17;;;6.40;99.90;;;;;;5037859;28;20083;-73
2023/05/04 00:38:49;;;;;;;4.70;3.13;;;6.40;99.90;;;;;;5035385;28;20025;-73
2023/05/04 00:41:15;;;;;;;5.03;3.00;;;6.40;99.90;;;;;;5038164;28;20029;-73
2023/05/04 00:43:41;;;;;;;5.45;2.80;;;6.30;99.90;;;;;;5054087;28;20037;-73
2023/05/04 00:46:07;;;;;;;5.65;2.92;;;6.30;99.90;;;;;;5054941;28;20033;-73
2023/05/04 00:48:34;;;;;;;3.80;2.95;;;6.20;99.90;;;;;;5054534;28;20036;-74
2023/05/04 00:51:00;;;;;;;5.18;3.10;;;6.20;99.90;;;;;;5055530;28;20040;-74
2023/05/04 00:53:25;;;;;;;3.65;2.65;;;6.10;99.90;;;;;;5055504;28;20028;-74
2023/05/04 00:55:51;;;;;;;4.55;2.92;;;6.10;99.90;;;;;;5046182;28;20363;-74
2023/05/04 00:58:17;;;;;;;5.30;3.17;;;6.00;99.90;;;;;;5043820;28;20032;-74
2023/05/04 01:00:43;;;;;;;3.80;2.45;;;6.00;99.90;;;;;;5040378;28;20038;-74
2023/05/04 01:03:09;;;;;;;5.03;3.28;;;5.90;99.90;;;;;;5043853;28;20110;-74
2023/05/04 01:05:56;;;;;;;3.92;2.60;;;5.90;99.90;;;;;;5055779;28;20048;-75
2023/05/04 01:08:29;;;;;;;4.22;2.75;;;5.90;99.90;;;;;;5055996;28;20067;-75
2023/05/04 01:11:09;;;;;;;4.05;2.80;;;5.90;99.90;;;;;;5055456;28;20093;-74
2023/05/04 01:13:37;;;;;;;5.93;2.97;;;5.80;99.90;;;;;;5055791;28;20485;-74
2023/05/04 01:16:04;;;;;;;3.60;2.50;;;5.80;99.90;;;;;;5055769;28;20029;-74
2023/05/04 01:18:30;;;;;;;5.32;3.08;;;5.80;99.90;;;;;;5054624;28;20036;-74
2023/05/04 01:20:56;;;;;;;7.03;2.70;;;5.80;99.90;;;;;;5055118;28;20485;-75
2023/05/04 01:23:22;;;;;;;4.40;2.70;;;5.70;99.90;;;;;;5055575;28;20047;-75
2023/05/04 01:26:01;;;;;;;4.40;2.55;;;5.70;99.90;;;;;;5054684;28;20020;-74
2023/05/04 01:28:36;;;;;;;5.43;2.85;;;5.70;99.90;;;;;;5054590;28;20531;-74
2023/05/04 01:31:03;;;;;;;4.25;2.58;;;5.60;99.90;;;;;;5054346;28;20033;-74
2023/05/04 01:33:30;;;;;;;3.42;2.38;;;5.60;99.90;;;;;;5055020;28;20031;-75
2023/05/04 01:35:57;;;;;;;5.10;2.47;;;5.60;99.90;;;;;;5043611;28;20473;-74
2023/05/04 01:38:23;;;;;;;4.35;2.70;;;5.50;99.90;;;;;;5034781;28;20068;-74
2023/05/04 01:40:48;;;;;;;4.45;3.28;;;5.50;99.90;;;;;;5052244;28;20052;-74
2023/05/04 01:43:14;;;;;;;3.80;2.65;;;5.50;99.90;;;;;;5045178;28;20037;-74
2023/05/04 01:45:40;;;;;;;5.47;2.85;;;5.50;99.90;;;;;;5035950;28;20030;-74
2023/05/04 01:48:05;;;;;;;5.05;3.40;;;5.50;99.90;;;;;;5040834;28;20087;-74
2023/05/04 01:50:31;;;;;;;4.53;2.63;;;5.40;99.90;;;;;;5035151;28;20033;-74
2023/05/04 01:52:57;;;;;;;5.35;2.90;;;5.40;99.90;;;;;;5034754;28;20037;-74
2023/05/04 01:55:22;;;;;;;4.88;3.10;;;5.40;99.90;;;;;;5050492;28;20025;-74
2023/05/04 01:57:48;;;;;;;5.28;3.17;;;5.40;99.90;;;;;;5050534;28;20028;-74
2023/05/04 02:00:14;;;;;;;4.55;2.63;;;5.40;99.90;;;;;;5054859;28;20105;-74
2023/05/04 02:02:40;;;;;;;4.07;2.60;;;5.30;99.90;;;;;;5054060;28;20021;-74
2023/05/04 02:05:06;;;;;;;6.82;3.03;;;5.30;99.90;;;;;;5049997;28;20029;-74
2023/05/04 02:07:32;;;;;;;3.85;2.50;;;5.30;99.90;;;;;;5037254;28;20509;-74
2023/05/04 02:09:57;;;;;;;4.20;2.70;;;5.30;99.90;;;;;;5054436;28;20587;-74
2023/05/04 02:12:23;;;;;;;6.85;2.88;;;5.20;99.90;;;;;;5046343;28;20398;-74
2023/05/04 02:14:49;;;;;;;5.15;2.60;;;5.20;99.90;;;;;;5034856;28;20108;-74
2023/05/04 02:17:14;;;;;;;4.72;2.47;;;5.20;99.90;;;;;;5049038;28;20036;-74
2023/05/04 02:19:40;;;;;;;4.70;2.53;;;5.20;99.90;;;;;;5036180;28;20030;-74
2023/05/04 02:22:06;;;;;;;6.68;3.50;;;5.20;99.90;;;;;;5034399;28;20393;-73
2023/05/04 02:24:31;;;;;;;19.08;8.77;;;5.20;99.90;;;;;;5054159;28;20036;-74
2023/05/04 02:26:57;;;;;;;24.75;13.55;;;5.10;99.90;;;;;;5054328;28;20039;-74
2023/05/04 02:29:23;;;;;;;25.00;14.75;;;5.10;99.90;;;;;;5053851;28;20067;-74
2023/05/04 02:31:48;;;;;;;21.55;12.60;;;5.00;99.90;;;;;;5053810;28;20497;-74
2023/05/04 02:34:14;;;;;;;17.10;10.07;;;5.00;99.90;;;;;;5045015;28;20474;-74
2023/05/04 02:36:40;;;;;;;13.32;7.15;;;5.00;99.90;;;;;;5038639;28;20479;-74
2023/05/04 02:39:05;;;;;;;8.65;5.35;;;5.00;99.90;;;;;;5034732;28;20037;-74
2023/05/04 02:41:31;;;;;;;7.93;3.63;;;5.00;99.90;;;;;;5040074;28;20461;-74
2023/05/04 02:43:57;;;;;;;5.00;3.10;;;5.00;99.90;;;;;;5042986;28;20370;-74
2023/05/04 02:46:24;;;;;;;6.28;3.08;;;5.00;99.90;;;;;;5038426;28;20108;-74
2023/05/04 02:48:49;;;;;;;4.80;2.80;;;5.00;99.90;;;;;;5034555;28;20063;-74
2023/05/04 02:51:15;;;;;;;3.75;2.53;;;4.90;99.90;;;;;;5038788;28;20033;-74
2023/05/04 02:53:41;;;;;;;4.85;2.67;;;4.90;99.90;;;;;;5052467;28;20079;-74
2023/05/04 02:56:07;;;;;;;5.68;2.42;;;4.80;99.90;;;;;;5035499;28;20036;-74
2023/05/04 02:58:32;;;;;;;6.32;2.80;;;4.80;99.90;;;;;;5053410;28;20025;-74
2023/05/04 03:00:58;;;;;;;5.90;2.85;;;4.70;99.90;;;;;;5034863;28;20033;-75
2023/05/04 03:03:24;;;;;;;6.28;2.70;;;4.70;99.90;;;;;;5045168;28;20397;-74
2023/05/04 03:05:49;;;;;;;3.67;2.60;;;4.60;99.90;;;;;;5044934;28;20040;-74
2023/05/04 03:08:15;;;;;;;3.88;2.63;;;4.60;99.90;;;;;;5056665;28;20025;-74
2023/05/04 03:10:41;;;;;;;4.10;2.70;;;4.60;99.90;;;;;;5058165;28;20393;-74
2023/05/04 03:13:06;;;;;;;5.50;3.63;;;4.60;99.90;;;;;;5058308;28;20091;-74
2023/05/04 03:15:32;;;;;;;4.63;3.00;;;4.50;99.90;;;;;;5057930;28;20049;-74
2023/05/04 03:17:58;;;;;;;5.55;3.53;;;4.50;99.90;;;;;;5057904;28;20033;-74
2023/05/04 03:20:24;;;;;;;4.47;2.90;;;4.50;99.90;;;;;;5057594;28;20033;-74
2023/05/04 03:22:50;;;;;;;10.73;5.65;;;4.50;99.90;;;;;;5057922;28;20575;-75
2023/05/04 03:25:15;;;;;;;18.88;8.75;;;4.50;99.90;;;;;;5057990;28;20071;-74
2023/05/04 03:27:41;;;;;;;16.52;8.38;;;4.50;99.90;;;;;;5058069;28;20025;-74
2023/05/04 03:30:07;;;;;;;11.48;6.82;;;4.50;99.90;;;;;;5057571;28;20029;-74
2023/05/04 03:32:33;;;;;;;9.45;5.85;;;4.50;99.90;;;;;;5072174;28;20032;-75
2023/05/04 03:34:58;;;;;;;8.35;4.60;;;4.50;99.90;;;;;;5045280;28;20029;-74
2023/05/04 03:37:24;;;;;;;7.03;4.03;;;4.50;99.90;;;;;;5036999;28;20034;-74
2023/05/04 03:39:50;;;;;;;5.85;4.00;;;4.50;99.90;;;;;;5036569;28;20110;-75
2023/05/04 03:42:16;;;;;;;7.75;3.92;;;4.50;99.90;;;;;;5049177;28;20036;-74
2023/05/04 03:44:41;;;;;;;4.93;3.28;;;4.50;99.90;;;;;;5037757;28;20433;-74
2023/05/04 03:47:07;;;;;;;4.72;3.20;;;4.50;99.90;;;;;;5041247;28;20430;-74
2023/05/04 03:49:33;;;;;;;6.35;3.00;;;4.50;99.90;;;;;;5040604;28;20512;-74
2023/05/04 03:51:59;;;;;;;4.03;2.85;;;4.50;99.90;;;;;;5036521;28;20038;-74
2023/05/04 03:54:25;;;;;;;5.78;3.00;;;4.40;99.90;;;;;;5037242;28;20496;-74
2023/05/04 03:56:51;;;;;;;6.25;3.28;;;4.40;99.90;;;;;;5044993;28;20073;-74
2023/05/04 03:59:17;;;;;;;4.75;3.10;;;4.50;99.90;;;;;;5056242;28;20021;-74
2023/05/04 04:01:43;;;;;;;5.03;2.95;;;4.50;99.90;;;;;;5054634;28;20037;-74
2023/05/04 04:04:09;;;;;;;5.68;2.90;;;4.50;99.90;;;;;;5045538;28;20128;-75
2023/05/04 04:06:34;;;;;;;4.43;2.90;;;4.40;99.90;;;;;;5055609;28;20036;-74
2023/05/04 04:09:00;;;;;;;5.40;3.20;;;4.40;99.90;;;;;;5050164;28;20429;-74
2023/05/04 04:11:26;;;;;;;5.95;3.70;;;4.50;99.90;;;;;;5040603;28;20029;-74
2023/05/04 04:13:52;;;;;;;5.30;3.33;;;4.40;99.90;;;;;;5055214;28;20409;-74
2023/05/04 04:16:19;;;;;;;4.93;3.17;;;4.40;99.90;;;;;;5055102;28;20068;-74
2023/05/04 04:18:45;;;;;;;4.38;3.00;;;4.40;99.90;;;;;;5055710;28;20539;-74
2023/05/04 04:21:11;;;;;;;4.75;2.88;;;4.30;99.90;;;;;;5055630;28;20037;-74
2023/05/04 04:23:37;;;;;;;4.20;2.42;;;4.30;99.90;;;;;;5055780;28;20079;-75
2023/05/04 04:26:04;;;;;;;4.88;3.08;;;4.30;99.90;;;;;;5055542;28;20025;-74
2023/05/04 04:28:31;;;;;;;6.63;2.97;;;4.30;99.90;;;;;;5055648;28;20051;-74
2023/05/04 04:30:57;;;;;;;3.97;2.58;;;4.20;99.90;;;;;;5049916;28;20108;-74
2023/05/04 04:33:22;;;;;;;8.00;2.63;;;4.20;99.90;;;;;;5053507;28;20112;-74
2023/05/04 04:35:48;;;;;;;4.85;3.00;;;4.20;99.90;;;;;;5055574;28;20068;-75
2023/05/04 04:38:14;;;;;;;7.80;2.88;;;4.20;99.90;;;;;;5041959;28;20034;-74
2023/05/04 04:40:40;;;;;;;8.23;3.42;;;4.20;99.90;;;;;;5035182;28;20040;-74
2023/05/04 04:43:05;;;;;;;7.10;3.97;;;4.10;99.90;;;;;;5045393;28;20033;-73
2023/05/04 04:45:31;;;;;;;5.30;2.97;;;4.10;99.90;;;;;;5048749;28;20057;-74
2023/05/04 04:47:56;;;;;;;5.40;3.55;;;4.20;99.90;;;;;;5038397;28;20040;-73
2023/05/04 04:50:22;;;;;;;6.03;3.70;;;4.20;99.90;;;;;;5036528;28;20493;-74
2023/05/04 04:52:48;;;;;;;6.43;3.70;;;4.20;99.90;;;;;;5035227;28;20521;-74
2023/05/04 04:55:15;;;;;;;7.57;4.65;;;4.20;99.90;;;;;;5034212;28;20041;-73
2023/05/04 04:57:44;;;;;;;8.18;4.45;;;4.30;99.90;;;;;;5044971;28;20048;-74
2023/05/04 05:00:10;;;;;;;5.65;3.70;;;4.30;99.90;;;;;;5054043;28;20057;-74
2023/05/04 05:02:36;;;;;;;5.63;3.72;;;4.30;99.90;;;;;;5046368;28;20030;-74
2023/05/04 05:05:02;;;;;;;6.38;3.20;;;4.30;99.90;;;;;;5045668;28;20040;-74
2023/05/04 05:07:28;;;;;;;6.05;4.28;;;4.30;99.90;;;;;;5036344;28;20116;-74
2023/05/04 05:09:53;;;;;;;5.35;3.65;;;4.40;99.90;;;;;;5039745;28;20540;-74
2023/05/04 05:12:19;;;;;;;6.13;3.88;;;4.40;99.90;;;;;;5054526;28;20566;-74
2023/05/04 05:14:46;;;;;;;5.25;3.22;;;4.40;99.90;;;;;;5053533;28;20033;-73
2023/05/04 05:17:11;;;;;;;5.82;3.40;;;4.50;99.90;;;;;;5054780;28;20473;-75
2023/05/04 05:19:37;;;;;;;6.20;3.75;;;4.50;99.90;;;;;;5054321;28;20083;-74
2023/05/04 05:22:03;;;;;;;8.25;4.00;;;4.50;99.90;;;;;;5054421;28;20029;-74
2023/05/04 05:24:29;;;;;;;7.50;4.40;;;4.60;99.90;;;;;;5054106;28;20374;-74
2023/05/04 05:26:55;;;;;;;6.53;3.90;;;4.60;99.90;;;;;;5054264;28;20040;-75
2023/05/04 05:29:21;;;;;;;6.22;4.10;;;4.60;99.90;;;;;;5052853;28;20533;-74
2023/05/04 05:31:46;;;;;;;8.95;5.20;;;4.70;99.90;;;;;;5053381;28;20033;-74
2023/05/04 05:34:12;;;;;;;8.02;4.95;;;4.70;99.90;;;;;;5054152;28;20047;-75
2023/05/04 05:36:38;;;;;;;8.52;4.82;;;4.70;99.90;;;;;;5053479;28;20056;-74
2023/05/04 05:39:04;;;;;;;7.35;5.32;;;4.80;99.90;;;;;;5036463;28;20033;-75
2023/05/04 05:41:29;;;;;;;7.28;4.68;;;4.80;99.90;;;;;;5039315;28;20035;-74
2023/05/04 05:43:55;;;;;;;8.40;5.28;;;4.90;99.90;;;;;;5052214;28;20029;-73
2023/05/04 05:46:21;;;;;;;8.27;4.93;;;4.90;99.90;;;;;;5052349;28;20064;-74
2023/05/04 05:48:47;;;;;;;9.27;4.90;;;5.00;99.90;;;;;;5042192;28;20501;-75
2023/05/04 05:51:13;;;;;;;7.60;5.25;;;5.00;99.90;;;;;;5033807;28;20041;-74
2023/05/04 05:53:39;;;;;;;9.68;5.95;;;5.00;99.90;;;;;;5034296;28;20034;-73
2023/05/04 05:56:04;;;;;;;11.63;6.97;;;5.10;99.90;;;;;;5034049;28;20029;-73
2023/05/04 05:58:30;;;;;;;9.77;6.35;;;5.20;99.90;;;;;;5044099;28;20032;-73
2023/05/04 06:00:56;;;;;;;11.57;6.72;;;5.30;99.90;;;;;;5046366;28;20026;-73
2023/05/04 06:03:21;;;;;;;9.10;6.43;;;5.30;99.90;;;;;;5041701;28;20044;-73
2023/05/04 06:05:47;;;;;;;11.15;6.30;;;5.40;99.90;;;;;;5048502;28;20091;-74
2023/05/04 06:08:13;;;;;;;10.48;6.15;;;5.50;99.90;;;;;;5032644;28;20045;-74
2023/05/04 06:10:38;;;;;;;12.32;6.97;;;5.60;99.90;;;;;;5047109;28;20428;-74
2023/05/04 06:13:04;;;;;;;9.05;6.07;;;5.70;99.90;;;;;;5038927;28;20429;-74
2023/05/04 06:15:30;;;;;;;9.98;6.28;;;5.80;99.90;;;;;;5033134;28;20437;-74
2023/05/04 06:17:55;;;;;;;9.75;6.53;;;5.90;99.90;;;;;;5035082;28;20052;-74
2023/05/04 06:20:21;;;;;;;10.57;6.28;;;6.00;99.90;;;;;;5033433;28;20021;-74
2023/05/04 06:22:47;;;;;;;11.63;6.63;;;6.20;99.90;;;;;;5033401;28;20053;-74
2023/05/04 06:25:13;;;;;;;8.88;6.03;;;6.30;99.90;;;;;;5033336;28;20418;-74
2023/05/04 06:27:38;;;;;;;9.35;6.43;;;6.50;99.90;;;;;;5049364;28;20095;-73
2023/05/04 06:30:05;;;;;;;10.30;6.70;;;6.60;99.90;;;;;;5034136;28;20083;-74
2023/05/04 06:32:31;;;;;;;10.68;6.32;;;6.80;99.90;;;;;;5033407;28;20030;-74
2023/05/04 06:34:58;;;;;;;9.27;6.30;;;6.90;99.90;;;;;;5034420;28;20088;-74
2023/05/04 06:37:25;;;;;;;9.52;5.95;;;7.10;99.90;;;;;;5034942;28;20437;-74
2023/05/04 06:39:50;;;;;;;9.55;6.22;;;7.20;99.90;;;;;;5036046;28;20044;-74
2023/05/04 06:42:16;;;;;;;9.95;5.70;;;7.40;99.90;;;;;;5049779;28;20037;-74
2023/05/04 06:44:42;;;;;;;7.65;5.72;;;7.50;99.90;;;;;;5037683;28;20034;-74
2023/05/04 06:47:07;;;;;;;13.68;5.72;;;7.70;99.90;;;;;;5044080;28;20033;-74
2023/05/04 06:49:34;;;;;;;11.27;6.30;;;7.80;99.90;;;;;;5039757;28;20052;-74
2023/05/04 06:52:00;;;;;;;9.57;6.72;;;8.00;99.90;;;;;;5057391;28;20036;-74
2023/05/04 06:54:26;;;;;;;13.05;9.13;;;8.20;99.90;;;;;;5054956;28;20025;-73
2023/05/04 06:56:52;;;;;;;14.25;9.85;;;8.30;99.90;;;;;;5040797;28;20028;-74
2023/05/04 06:59:19;;;;;;;12.35;9.15;;;8.40;99.90;;;;;;5053168;28;20025;-74
2023/05/04 07:01:46;;;;;;;12.82;8.82;;;8.50;99.90;;;;;;5044026;28;20056;-74
2023/05/04 07:04:15;;;;;;;10.90;8.15;;;8.70;99.90;;;;;;5045160;28;20033;-74
2023/05/04 07:06:42;;;;;;;10.38;7.18;;;8.90;99.90;;;;;;5040638;28;20025;-74
2023/05/04 07:09:07;;;;;;;9.95;7.60;;;9.10;99.90;;;;;;5051156;28;20482;-74
2023/05/04 07:11:33;;;;;;;12.98;7.78;;;9.20;99.90;;;;;;5056766;28;20037;-74
2023/05/04 07:13:59;;;;;;;11.35;7.43;;;9.40;99.90;;;;;;5056817;28;20021;-75
2023/05/04 07:16:25;;;;;;;9.43;6.65;;;9.60;99.90;;;;;;5056900;28;20436;-74
2023/05/04 07:18:51;;;;;;;8.80;5.70;;;9.80;99.90;;;;;;5056768;28;20385;-74
2023/05/04 07:21:17;;;;;;;8.15;5.82;;;9.90;99.90;;;;;;5056984;28;20029;-74
2023/05/04 07:23:42;;;;;;;7.80;5.68;;;10.10;99.90;;;;;;5055993;28;20108;-74
2023/05/04 07:26:08;;;;;;;7.63;5.32;;;10.30;99.90;;;;;;5056433;28;20083;-74
2023/05/04 07:28:34;;;;;;;10.40;5.28;;;10.50;99.90;;;;;;5056576;28;20047;-75
2023/05/04 07:30:59;;;;;;;7.43;5.50;;;10.60;99.90;;;;;;5056203;28;20025;-74
2023/05/04 07:33:25;;;;;;;8.50;5.32;;;10.80;99.90;;;;;;5056528;28;20053;-74
2023/05/04 07:35:57;;;;;;;8.30;4.63;;;10.90;99.90;;;;;;5042445;28;20033;-74
2023/05/04 07:38:25;;;;;;;8.75;3.92;;;11.10;99.90;;;;;;5054778;28;20111;-74
2023/05/04 07:40:53;;;;;;;7.07;5.00;;;11.20;99.90;;;;;;5036701;28;20033;-74
2023/05/04 07:43:22;;;;;;;6.40;4.57;;;11.40;99.90;;;;;;5040001;28;20500;-74
2023/05/04 07:45:48;;;;;;;6.93;4.55;;;11.50;99.90;;;;;;5049238;28;20033;-74
2023/05/04 07:48:15;;;;;;;5.65;4.07;;;11.60;99.90;;;;;;5040350;28;20044;-74
2023/05/04 07:50:41;;;;;;;5.78;3.60;;;11.80;99.90;;;;;;5038371;28;20582;-74
2023/05/04 07:53:06;;;;;;;6.13;3.78;;;12.00;99.90;;;;;;5039501;28;20117;-74
2023/05/04 07:55:32;;;;;;;4.80;3.00;;;12.10;99.90;;;;;;5037094;28;20493;-74
2023/05/04 07:57:58;;;;;;;4.60;3.20;;;12.30;99.90;;;;;;5041188;28;20034;-74
2023/05/04 08:00:25;;;;;;;4.55;3.03;;;12.40;99.90;;;;;;5037085;28;20041;-74
2023/05/04 08:02:50;;;;;;;5.82;3.83;;;12.60;99.90;;;;;;5051120;28;20049;-74
2023/05/04 08:05:16;;;;;;;6.07;2.97;;;12.70;99.90;;;;;;5041517;28;20067;-74
2023/05/04 08:07:42;;;;;;;4.13;2.80;;;12.90;99.90;;;;;;5043645;28;20030;-74
2023/05/04 08:10:08;;;;;;;4.78;2.95;;;13.00;99.90;;;;;;5034679;28;20462;-74
2023/05/04 08:12:34;;;;;;;6.45;2.90;;;13.10;99.90;;;;;;5050435;28;20037;-73
2023/05/04 08:15:00;;;;;;;4.20;2.95;;;13.20;99.90;;;;;;5038927;28;20042;-74
2023/05/04 08:17:26;;;;;;;6.82;3.15;;;13.30;99.90;;;;;;5046765;28;20112;-73
2023/05/04 08:19:51;;;;;;;4.07;2.70;;;13.40;99.90;;;;;;5040519;28;20021;-74
2023/05/04 08:22:17;;;;;;;6.75;3.05;;;13.40;99.90;;;;;;5047423;28;20037;-74
2023/05/04 08:24:45;;;;;;;4.78;3.00;;;13.50;99.90;;;;;;5046388;28;20107;-74
2023/05/04 08:27:13;;;;;;;4.78;2.88;;;13.50;99.90;;;;;;5054331;28;20489;-74
2023/05/04 08:29:40;;;;;;;5.82;3.08;;;13.70;99.90;;;;;;5047198;28;20030;-74
2023/05/04 08:32:07;;;;;;;3.55;2.42;;;13.80;99.90;;;;;;5042106;28;20034;-74
2023/05/04 08:34:33;;;;;;;4.57;2.63;;;14.00;99.90;;;;;;5050679;28;20029;-74
2023/05/04 08:36:58;;;;;;;4.07;2.63;;;14.10;99.90;;;;;;5055391;28;20028;-74
2023/05/04 08:39:24;;;;;;;4.82;2.78;;;14.30;99.90;;;;;;5053749;28;20025;-74
2023/05/04 08:41:50;;;;;;;4.43;3.00;;;14.40;99.90;;;;;;5049165;28;20120;-74
2023/05/04 08:44:17;;;;;;;4.47;2.70;;;14.60;99.90;;;;;;5050014;28;20033;-73
2023/05/04 08:46:51;;;;;;;4.00;3.00;;;14.80;99.90;;;;;;5053559;28;20028;-74
2023/05/04 08:49:19;;;;;;;4.00;2.60;;;14.90;99.90;;;;;;5051989;28;20104;-74
2023/05/04 08:51:48;;;;;;;3.53;2.45;;;14.90;99.90;;;;;;5054762;28;20033;-75
2023/05/04 08:54:15;;;;;;;5.85;2.60;;;14.90;99.90;;;;;;5053534;28;20029;-75
2023/05/04 08:56:41;;;;;;;3.38;2.20;;;15.10;99.90;;;;;;5054607;28;20021;-74
2023/05/04 08:59:11;;;;;;;3.55;2.20;;;15.30;99.90;;;;;;5054332;28;20017;-74
2023/05/04 09:01:37;;;;;;;6.40;2.47;;;15.40;99.90;;;;;;5054375;28;20079;-75
2023/05/04 09:04:03;;;;;;;3.53;2.40;;;15.50;99.90;;;;;;5053850;28;20102;-74
2023/05/04 09:06:30;;;;;;;3.83;2.28;;;15.50;99.70;;;;;;5053782;28;20033;-75
2023/05/04 09:08:56;;;;;;;3.30;2.10;;;15.50;99.90;;;;;;5051515;28;20033;-74
2023/05/04 09:11:22;;;;;;;3.40;2.30;;;15.70;99.90;;;;;;5054265;28;20044;-74
2023/05/04 09:13:48;;;;;;;3.33;2.40;;;15.80;99.50;;;;;;5054474;28;20033;-75
2023/05/04 09:16:15;;;;;;;4.88;1.90;;;15.90;99.90;;;;;;5053563;28;20036;-74
2023/05/04 09:18:42;;;;;;;2.83;1.75;;;16.10;99.50;;;;;;5062750;28;20393;-74
2023/05/04 09:21:09;;;;;;;3.65;1.90;;;16.20;97.10;;;;;;5057454;28;20029;-74
2023/05/04 09:23:48;;;;;;;3.88;1.83;;;16.40;98.20;;;;;;5073689;28;20028;-75
2023/05/04 09:26:14;;;;;;;4.25;1.90;;;16.60;99.70;;;;;;5063041;28;20059;-74
2023/05/04 09:28:40;;;;;;;2.58;1.67;;;16.80;95.70;;;;;;5034340;28;20026;-75
2023/05/04 09:31:06;;;;;;;3.58;1.98;;;16.90;95.40;;;;;;5038964;28;20033;-74
2023/05/04 09:33:33;;;;;;;4.05;1.88;;;16.90;95.60;;;;;;5071624;28;20112;-74
2023/05/04 09:36:10;;;;;;;3.80;2.05;;;17.00;96.10;;;;;;5074119;28;20027;-75
2023/05/04 09:38:36;;;;;;;3.42;1.80;;;17.10;95.80;;;;;;5074220;28;20054;-75
2023/05/04 09:41:02;;;;;;;2.55;1.77;;;17.30;93.00;;;;;;5072606;28;20488;-74
2023/05/04 09:43:40;;;;;;;2.28;1.38;;;17.30;91.70;;;;;;5054282;28;20036;-75
2023/05/04 09:46:07;;;;;;;2.80;1.50;;;17.40;91.10;;;;;;5062751;28;20056;-74
2023/05/04 09:48:34;;;;;;;3.33;1.60;;;17.50;90.60;;;;;;5068872;28;20512;-74
2023/05/04 09:51:02;;;;;;;2.90;1.50;;;17.70;90.20;;;;;;5069326;28;20072;-75
2023/05/04 09:53:29;;;;;;;3.78;1.40;;;17.80;85.00;;;;;;5045593;28;20532;-74
2023/05/04 09:56:24;;;;;;;3.38;1.42;;;18.00;87.10;;;;;;5048171;28;20508;-75
2023/05/04 09:58:51;;;;;;;2.22;1.02;;;18.10;85.10;;;;;;5049230;28;20055;-75
2023/05/04 10:01:17;;;;;;;1.67;1.17;;;18.20;72.00;;;;;;5060049;28;20040;-75
2023/05/04 10:03:43;;;;;;;2.70;1.08;;;18.40;72.50;;;;;;5053570;28;20037;-75
2023/05/04 10:06:10;;;;;;;3.10;1.05;;;18.50;73.50;;;;;;5065958;28;20471;-75
2023/05/04 10:08:37;;;;;;;6.03;1.30;;;18.60;73.70;;;;;;5072254;28;20040;-74
2023/05/04 10:11:03;;;;;;;2.17;1.10;;;18.70;70.10;;;;;;5047036;28;20100;-74
2023/05/04 10:13:29;;;;;;;2.03;1.20;;;18.70;72.50;;;;;;5053601;28;20036;-75
2023/05/04 10:16:23;;;;;;;4.22;1.48;;;18.80;75.80;;;;;;5052508;28;20112;-74
2023/05/04 10:19:22;;;;;;;2.70;1.33;;;19.00;75.50;;;;;;5052743;28;20538;-74
2023/05/04 10:22:17;;;;;;;2.15;1.10;;;19.10;77.20;;;;;;5051910;28;20501;-74
2023/05/04 10:24:48;;;;;;;2.75;1.17;;;19.20;74.50;;;;;;5044916;28;20033;-75
2023/05/04 10:27:36;;;;;;;2.53;1.20;;;19.30;76.30;;;;;;5044242;28;20036;-74
2023/05/04 10:30:03;;;;;;;3.05;1.45;;;19.40;74.30;;;;;;5052692;28;20036;-73
2023/05/04 10:32:29;;;;;;;2.20;1.23;;;19.50;74.10;;;;;;5053109;28;20021;-74
2023/05/04 10:35:06;;;;;;;3.25;1.10;;;19.50;75.10;;;;;;5052764;28;20408;-74
2023/05/04 10:37:32;;;;;;;1.85;1.10;;;19.50;70.40;;;;;;5049928;28;20549;-74
2023/05/04 10:39:58;;;;;;;2.20;1.17;;;19.60;71.80;;;;;;5044025;28;20124;-75
2023/05/04 10:42:23;;;;;;;1.88;1.20;;;19.70;74.40;;;;;;5051943;28;20029;-74
2023/05/04 10:44:51;;;;;;;2.00;1.20;;;19.80;70.60;;;;;;5042591;28;20032;-74
2023/05/04 10:47:28;;;;;;;5.18;1.23;;;20.00;73.60;;;;;;5035385;28;20474;-74
2023/05/04 10:50:04;;;;;;;2.20;1.23;;;20.10;72.00;;;;;;5042722;28;20103;-74
2023/05/04 10:52:31;;;;;;;2.83;1.30;;;20.10;66.30;;;;;;5032923;28;20021;-74
2023/05/04 10:55:03;;;;;;;1.90;1.00;;;20.10;67.80;;;;;;5051746;28;20048;-75
2023/05/04 10:57:30;;;;;;;1.88;1.17;;;20.10;71.50;;;;;;5052140;28;20024;-73
2023/05/04 10:59:58;;;;;;;3.83;1.30;;;20.20;68.10;;;;;;5042929;28;20021;-74
2023/05/04 11:02:25;;;;;;;2.03;0.90;;;20.30;65.60;;;;;;5051785;28;20029;-74
2023/05/04 11:05:03;;;;;;;2.53;1.17;;;20.50;67.80;;;;;;5036146;28;20048;-74
2023/05/04 11:07:33;;;;;;;2.50;0.90;;;20.60;59.80;;;;;;5032803;28;20033;-74
2023/05/04 11:09:59;;;;;;;1.95;1.02;;;20.70;62.30;;;;;;5035631;28;20029;-74
2023/05/04 11:12:26;;;;;;;1.80;0.95;;;20.70;61.40;;;;;;5048942;28;20037;-74
2023/05/04 11:15:10;;;;;;;1.70;0.82;;;20.80;62.20;;;;;;5060426;28;20397;-74
2023/05/04 11:17:50;;;;;;;3.38;0.90;;;20.80;59.30;;;;;;5072894;28;20017;-75
2023/05/04 11:20:19;;;;;;;1.80;1.10;;;20.80;58.40;;;;;;5059674;28;20025;-74
2023/05/04 11:22:45;;;;;;;2.83;0.90;;;20.90;59.60;;;;;;5052679;28;20493;-74
2023/05/04 11:25:11;;;;;;;2.88;1.02;;;20.90;58.00;;;;;;5052534;28;20044;-74
2023/05/04 11:27:37;;;;;;;2.45;1.10;;;21.00;59.30;;;;;;5052724;28;20033;-75
2023/05/04 11:30:03;;;;;;;2.25;1.10;;;21.10;57.40;;;;;;5042026;28;20091;-75
2023/05/04 11:32:33;;;;;;;2.63;0.80;;;21.30;53.20;;;;;;5040183;28;20025;-74
2023/05/04 11:34:59;;;;;;;2.13;0.90;;;21.30;54.20;;;;;;5046678;28;20112;-74
2023/05/04 11:37:27;;;;;;;2.55;0.85;;;21.40;53.90;;;;;;5040316;28;20031;-74
2023/05/04 11:39:53;;;;;;;2.78;0.88;;;21.50;48.00;;;;;;5040800;28;20033;-74
2023/05/04 11:42:19;;;;;;;2.53;1.08;;;21.50;56.00;;;;;;5055073;28;20116;-74
2023/05/04 11:44:45;;;;;;;1.88;0.75;;;21.60;56.20;;;;;;5055560;28;20071;-74
2023/05/04 11:47:12;;;;;;;2.35;1.17;;;21.60;54.00;;;;;;5049443;28;20451;-74
2023/05/04 11:49:38;;;;;;;2.08;1.00;;;21.80;57.40;;;;;;5039921;28;20469;-74
2023/05/04 11:52:05;;;;;;;2.90;1.08;;;21.90;56.10;;;;;;5041219;28;20040;-74
2023/05/04 11:54:31;;;;;;;2.67;1.00;;;21.90;54.70;;;;;;5055887;28;20040;-74
2023/05/04 11:56:57;;;;;;;1.77;1.00;;;21.90;54.80;;;;;;5055684;28;20017;-75
2023/05/04 11:59:23;;;;;;;1.98;1.30;;;21.70;52.00;;;;;;5050936;28;20031;-74
2023/05/04 12:01:49;;;;;;;2.35;1.20;;;21.60;56.00;;;;;;5046661;28;20064;-74
2023/05/04 12:04:14;;;;;;;3.75;1.05;;;21.60;58.60;;;;;;5058273;28;20029;-74
2023/05/04 12:06:40;;;;;;;1.50;0.90;;;21.80;57.60;;;;;;5058681;28;20025;-74
2023/05/04 12:09:06;;;;;;;2.38;1.20;;;22.00;56.40;;;;;;5071000;28;20431;-74
2023/05/04 12:11:33;;;;;;;5.68;1.42;;;22.20;56.30;;;;;;5055014;28;20071;-75
2023/05/04 12:14:12;;;;;;;13.45;4.00;;;22.40;54.80;;;;;;5056605;28;20079;-74
2023/05/04 12:16:38;;;;;;;2.67;1.38;;;22.50;57.10;;;;;;5075548;28;20488;-74
2023/05/04 12:19:09;;;;;;;2.95;1.15;;;22.60;54.40;;;;;;5045195;28;20124;-74
2023/05/04 12:21:36;;;;;;;2.50;1.00;;;22.70;56.40;;;;;;5058114;28;20100;-74
2023/05/04 12:24:04;;;;;;;1.60;0.90;;;22.70;51.10;;;;;;5061156;28;20025;-74
2023/05/04 12:26:30;;;;;;;6.50;2.53;;;22.70;47.80;;;;;;5049003;28;20034;-74
2023/05/04 12:28:55;;;;;;;41.90;14.88;;;22.50;50.30;;;;;;5036486;28;20029;-74
2023/05/04 12:31:22;;;;;;;15.38;6.40;;;22.60;53.90;;;;;;5040743;28;20543;-74
2023/05/04 12:33:49;;;;;;;3.38;1.40;;;22.60;50.50;;;;;;5046521;28;20021;-74
2023/05/04 12:36:15;;;;;;;2.65;1.30;;;22.70;50.00;;;;;;5050294;28;20477;-74
2023/05/04 12:38:41;;;;;;;4.05;1.73;;;22.70;49.90;;;;;;5052663;28;20044;-75
2023/05/04 12:41:09;;;;;;;2.42;1.35;;;22.90;51.30;;;;;;5053921;28;20033;-74
2023/05/04 12:43:35;;;;;;;2.35;1.15;;;23.00;53.50;;;;;;5050327;28;20053;-74
2023/05/04 12:46:01;;;;;;;2.25;1.10;;;23.20;51.90;;;;;;5046672;28;20129;-74
2023/05/04 12:48:30;;;;;;;1.83;0.93;;;23.20;47.80;;;;;;5050109;28;20060;-74
2023/05/04 12:50:57;;;;;;;2.08;0.80;;;23.10;49.90;;;;;;5054763;28;20036;-74